sensor_id;sensor_type;location;lat;lon;timestamp;pressure;altitude;pressure_sealevel;temperature
34125;BMP280;20110;53.120;5.786;2022-09-02T00:01:28;102065.13;;;18.92
34125;BMP280;20110;53.120;5.786;2022-09-02T00:03:58;102086.28;;;19.10
34125;BMP280;20110;53.120;5.786;2022-09-02T00:06:25;102051.88;;;19.01
34125;BMP280;20110;53.120;5.786;2022-09-02T00:08:51;102070.34;;;19.12
34125;BMP280;20110;53.120;5.786;2022-09-02T00:11:24;102071.00;;;19.20
34125;BMP280;20110;53.120;5.786;2022-09-02T00:13:50;102062.59;;;19.16
34125;BMP280;20110;53.120;5.786;2022-09-02T00:16:18;102072.81;;;19.25
34125;BMP280;20110;53.120;5.786;2022-09-02T00:18:44;102051.47;;;19.12
34125;BMP280;20110;53.120;5.786;2022-09-02T00:21:13;102050.41;;;19.08
34125;BMP280;20110;53.120;5.786;2022-09-02T00:23:41;102057.00;;;19.22
34125;BMP280;20110;53.120;5.786;2022-09-02T00:26:08;102048.44;;;19.23
34125;BMP280;20110;53.120;5.786;2022-09-02T00:28:34;102050.19;;;19.28
34125;BMP280;20110;53.120;5.786;2022-09-02T00:31:01;102046.09;;;19.12
34125;BMP280;20110;53.120;5.786;2022-09-02T00:33:27;102066.19;;;19.26
34125;BMP280;20110;53.120;5.786;2022-09-02T00:35:53;102022.06;;;18.99
34125;BMP280;20110;53.120;5.786;2022-09-02T00:38:19;102042.00;;;19.11
34125;BMP280;20110;53.120;5.786;2022-09-02T00:40:48;102059.00;;;19.21
34125;BMP280;20110;53.120;5.786;2022-09-02T00:46:09;102051.13;;;19.23
34125;BMP280;20110;53.120;5.786;2022-09-02T00:48:41;102028.69;;;19.06
34125;BMP280;20110;53.120;5.786;2022-09-02T00:51:10;102010.94;;;18.95
34125;BMP280;20110;53.120;5.786;2022-09-02T00:53:38;102038.34;;;19.16
34125;BMP280;20110;53.120;5.786;2022-09-02T00:56:13;102032.84;;;18.99
34125;BMP280;20110;53.120;5.786;2022-09-02T00:58:41;102037.50;;;19.06
34125;BMP280;20110;53.120;5.786;2022-09-02T01:01:09;101989.25;;;18.63
34125;BMP280;20110;53.120;5.786;2022-09-02T01:03:38;102038.41;;;19.01
34125;BMP280;20110;53.120;5.786;2022-09-02T01:06:04;102017.25;;;18.90
34125;BMP280;20110;53.120;5.786;2022-09-02T01:08:35;102043.59;;;18.99
34125;BMP280;20110;53.120;5.786;2022-09-02T01:11:04;102030.16;;;18.92
34125;BMP280;20110;53.120;5.786;2022-09-02T01:13:36;102022.78;;;18.84
34125;BMP280;20110;53.120;5.786;2022-09-02T01:16:20;102037.16;;;18.95
34125;BMP280;20110;53.120;5.786;2022-09-02T01:18:51;102025.31;;;18.82
34125;BMP280;20110;53.120;5.786;2022-09-02T01:21:18;102015.63;;;18.72
34125;BMP280;20110;53.120;5.786;2022-09-02T01:23:46;102030.00;;;18.74
34125;BMP280;20110;53.120;5.786;2022-09-02T01:26:12;102031.63;;;18.70
34125;BMP280;20110;53.120;5.786;2022-09-02T01:28:39;101992.69;;;18.48
34125;BMP280;20110;53.120;5.786;2022-09-02T01:31:06;102016.88;;;18.63
34125;BMP280;20110;53.120;5.786;2022-09-02T01:33:32;102015.28;;;18.60
34125;BMP280;20110;53.120;5.786;2022-09-02T01:35:58;102003.25;;;18.54
34125;BMP280;20110;53.120;5.786;2022-09-02T01:38:25;101977.59;;;18.30
34125;BMP280;20110;53.120;5.786;2022-09-02T01:40:51;101996.44;;;18.45
34125;BMP280;20110;53.120;5.786;2022-09-02T01:43:24;102012.97;;;18.49
34125;BMP280;20110;53.120;5.786;2022-09-02T01:45:55;101992.28;;;18.29
34125;BMP280;20110;53.120;5.786;2022-09-02T01:48:21;102000.19;;;18.34
34125;BMP280;20110;53.120;5.786;2022-09-02T01:50:58;101981.69;;;18.08
34125;BMP280;20110;53.120;5.786;2022-09-02T01:53:25;101981.72;;;18.16
34125;BMP280;20110;53.120;5.786;2022-09-02T01:55:51;101981.72;;;18.16
34125;BMP280;20110;53.120;5.786;2022-09-02T01:58:17;101952.13;;;17.93
34125;BMP280;20110;53.120;5.786;2022-09-02T02:00:45;101989.06;;;18.30
34125;BMP280;20110;53.120;5.786;2022-09-02T02:03:11;101992.28;;;18.29
34125;BMP280;20110;53.120;5.786;2022-09-02T02:05:37;101986.38;;;18.30
34125;BMP280;20110;53.120;5.786;2022-09-02T02:08:04;101989.06;;;18.23
34125;BMP280;20110;53.120;5.786;2022-09-02T02:10:30;101966.25;;;18.01
34125;BMP280;20110;53.120;5.786;2022-09-02T02:12:56;101965.03;;;17.94
34125;BMP280;20110;53.120;5.786;2022-09-02T02:15:23;101987.63;;;18.14
34125;BMP280;20110;53.120;5.786;2022-09-02T02:17:49;101984.56;;;18.10
34125;BMP280;20110;53.120;5.786;2022-09-02T02:20:18;101988.50;;;18.01
34125;BMP280;20110;53.120;5.786;2022-09-02T02:22:45;101972.50;;;17.88
34125;BMP280;20110;53.120;5.786;2022-09-02T02:25:12;101985.25;;;17.95
34125;BMP280;20110;53.120;5.786;2022-09-02T02:27:40;101983.63;;;17.92
34125;BMP280;20110;53.120;5.786;2022-09-02T02:30:08;101979.72;;;17.93
34125;BMP280;20110;53.120;5.786;2022-09-02T02:32:35;101972.16;;;17.84
34125;BMP280;20110;53.120;5.786;2022-09-02T02:35:02;101970.94;;;17.93
34125;BMP280;20110;53.120;5.786;2022-09-02T02:37:28;101979.00;;;18.00
34125;BMP280;20110;53.120;5.786;2022-09-02T02:39:54;101956.97;;;17.94
34125;BMP280;20110;53.120;5.786;2022-09-02T02:42:21;101954.81;;;17.93
34125;BMP280;20110;53.120;5.786;2022-09-02T02:44:46;101958.72;;;17.99
34125;BMP280;20110;53.120;5.786;2022-09-02T02:47:12;101960.69;;;17.99
34125;BMP280;20110;53.120;5.786;2022-09-02T02:49:41;101969.69;;;18.01
34125;BMP280;20110;53.120;5.786;2022-09-02T02:52:09;101972.91;;;18.07
34125;BMP280;20110;53.120;5.786;2022-09-02T02:54:36;101961.97;;;17.98
34125;BMP280;20110;53.120;5.786;2022-09-02T02:57:03;101973.78;;;18.02
34125;BMP280;20110;53.120;5.786;2022-09-02T02:59:30;101970.19;;;18.00
34125;BMP280;20110;53.120;5.786;2022-09-02T03:01:56;101960.16;;;17.85
34125;BMP280;20110;53.120;5.786;2022-09-02T03:04:22;101962.47;;;17.89
34125;BMP280;20110;53.120;5.786;2022-09-02T03:06:49;101924.59;;;17.56
34125;BMP280;20110;53.120;5.786;2022-09-02T03:09:16;101957.63;;;17.80
34125;BMP280;20110;53.120;5.786;2022-09-02T03:11:42;101968.91;;;17.86
34125;BMP280;20110;53.120;5.786;2022-09-02T03:14:07;101976.44;;;17.87
34125;BMP280;20110;53.120;5.786;2022-09-02T03:16:35;101950.44;;;17.75
34125;BMP280;20110;53.120;5.786;2022-09-02T03:19:02;101871.50;;;17.26
34125;BMP280;20110;53.120;5.786;2022-09-02T03:21:27;101915.31;;;17.65
34125;BMP280;20110;53.120;5.786;2022-09-02T03:23:54;101958.38;;;18.03
34125;BMP280;20110;53.120;5.786;2022-09-02T03:26:23;101952.84;;;18.08
34125;BMP280;20110;53.120;5.786;2022-09-02T03:28:49;101931.31;;;18.01
34125;BMP280;20110;53.120;5.786;2022-09-02T03:31:19;101948.19;;;18.24
34125;BMP280;20110;53.120;5.786;2022-09-02T03:33:45;101955.72;;;18.33
34125;BMP280;20110;53.120;5.786;2022-09-02T03:36:28;101952.88;;;18.31
34125;BMP280;20110;53.120;5.786;2022-09-02T03:38:54;101946.25;;;18.32
34125;BMP280;20110;53.120;5.786;2022-09-02T03:41:20;101946.41;;;18.42
34125;BMP280;20110;53.120;5.786;2022-09-02T03:43:46;101931.50;;;18.33
34125;BMP280;20110;53.120;5.786;2022-09-02T03:46:12;101943.91;;;18.44
34125;BMP280;20110;53.120;5.786;2022-09-02T03:48:39;101940.28;;;18.41
34125;BMP280;20110;53.120;5.786;2022-09-02T03:51:06;101930.09;;;18.32
34125;BMP280;20110;53.120;5.786;2022-09-02T03:53:32;101906.78;;;18.12
34125;BMP280;20110;53.120;5.786;2022-09-02T03:56:08;101923.47;;;18.18
34125;BMP280;20110;53.120;5.786;2022-09-02T03:58:36;101933.50;;;18.18
34125;BMP280;20110;53.120;5.786;2022-09-02T04:01:04;101905.91;;;17.94
34125;BMP280;20110;53.120;5.786;2022-09-02T04:03:30;101922.19;;;17.96
34125;BMP280;20110;53.120;5.786;2022-09-02T04:05:57;101903.16;;;17.79
34125;BMP280;20110;53.120;5.786;2022-09-02T04:08:23;101917.31;;;17.87
34125;BMP280;20110;53.120;5.786;2022-09-02T04:10:49;101927.34;;;17.79
34125;BMP280;20110;53.120;5.786;2022-09-02T04:13:16;101928.78;;;17.73
34125;BMP280;20110;53.120;5.786;2022-09-02T04:15:44;101919.25;;;17.64
34125;BMP280;20110;53.120;5.786;2022-09-02T04:18:13;101884.59;;;17.30
34125;BMP280;20110;53.120;5.786;2022-09-02T04:20:40;101913.22;;;17.35
34125;BMP280;20110;53.120;5.786;2022-09-02T04:23:08;101922.69;;;17.28
34125;BMP280;20110;53.120;5.786;2022-09-02T04:25:40;101921.84;;;17.05
34125;BMP280;20110;53.120;5.786;2022-09-02T04:28:06;101916.06;;;16.93
34125;BMP280;20110;53.120;5.786;2022-09-02T04:30:31;101910.56;;;16.99
34125;BMP280;20110;53.120;5.786;2022-09-02T04:32:57;101900.50;;;16.92
34125;BMP280;20110;53.120;5.786;2022-09-02T04:35:23;101895.94;;;16.79
34125;BMP280;20110;53.120;5.786;2022-09-02T04:37:48;101918.19;;;16.87
34125;BMP280;20110;53.120;5.786;2022-09-02T04:40:15;101913.81;;;16.77
34125;BMP280;20110;53.120;5.786;2022-09-02T04:42:40;101896.13;;;16.53
34125;BMP280;20110;53.120;5.786;2022-09-02T04:45:07;101903.41;;;16.45
34125;BMP280;20110;53.120;5.786;2022-09-02T04:47:33;101911.97;;;16.64
34125;BMP280;20110;53.120;5.786;2022-09-02T04:49:59;101877.69;;;16.49
34125;BMP280;20110;53.120;5.786;2022-09-02T04:52:25;101889.78;;;16.64
34125;BMP280;20110;53.120;5.786;2022-09-02T04:54:51;101902.13;;;16.67
34125;BMP280;20110;53.120;5.786;2022-09-02T04:57:17;101871.59;;;16.49
34125;BMP280;20110;53.120;5.786;2022-09-02T04:59:43;101881.03;;;16.63
34125;BMP280;20110;53.120;5.786;2022-09-02T05:02:09;101904.59;;;16.85
34125;BMP280;20110;53.120;5.786;2022-09-02T05:04:36;101884.69;;;16.81
34125;BMP280;20110;53.120;5.786;2022-09-02T05:07:02;101889.22;;;16.86
34125;BMP280;20110;53.120;5.786;2022-09-02T05:09:30;101862.25;;;16.71
34125;BMP280;20110;53.120;5.786;2022-09-02T05:11:56;101911.69;;;17.11
34125;BMP280;20110;53.120;5.786;2022-09-02T05:14:23;101911.69;;;17.11
34125;BMP280;20110;53.120;5.786;2022-09-02T05:16:51;101905.44;;;17.09
34125;BMP280;20110;53.120;5.786;2022-09-02T05:19:21;101891.28;;;17.08
34125;BMP280;20110;53.120;5.786;2022-09-02T05:21:50;101892.56;;;17.15
34125;BMP280;20110;53.120;5.786;2022-09-02T05:24:17;101904.59;;;17.21
34125;BMP280;20110;53.120;5.786;2022-09-02T05:26:43;101910.75;;;17.37
34125;BMP280;20110;53.120;5.786;2022-09-02T05:29:11;101899.81;;;17.35
34125;BMP280;20110;53.120;5.786;2022-09-02T05:31:38;101902.34;;;17.41
34125;BMP280;20110;53.120;5.786;2022-09-02T05:34:07;101883.91;;;17.37
34125;BMP280;20110;53.120;5.786;2022-09-02T05:36:33;101905.47;;;17.67
34125;BMP280;20110;53.120;5.786;2022-09-02T05:38:59;101886.84;;;17.62
34125;BMP280;20110;53.120;5.786;2022-09-02T05:41:27;101889.34;;;17.67
34125;BMP280;20110;53.120;5.786;2022-09-02T05:43:59;101861.75;;;17.59
34125;BMP280;20110;53.120;5.786;2022-09-02T05:46:26;101905.34;;;17.96
34125;BMP280;20110;53.120;5.786;2022-09-02T05:48:54;101904.97;;;17.99
34125;BMP280;20110;53.120;5.786;2022-09-02T05:51:50;101896.94;;;18.07
34125;BMP280;20110;53.120;5.786;2022-09-02T05:54:27;101891.91;;;18.19
34125;BMP280;20110;53.120;5.786;2022-09-02T05:56:57;101898.00;;;18.34
34125;BMP280;20110;53.120;5.786;2022-09-02T05:59:25;101884.53;;;18.42
34125;BMP280;20110;53.120;5.786;2022-09-02T06:01:54;101888.84;;;18.53
34125;BMP280;20110;53.120;5.786;2022-09-02T06:04:21;101869.09;;;18.65
34125;BMP280;20110;53.120;5.786;2022-09-02T06:06:48;101897.00;;;18.93
34125;BMP280;20110;53.120;5.786;2022-09-02T06:09:18;101888.72;;;18.98
34125;BMP280;20110;53.120;5.786;2022-09-02T06:11:45;101876.47;;;19.05
34125;BMP280;20110;53.120;5.786;2022-09-02T06:14:16;101886.31;;;19.17
34125;BMP280;20110;53.120;5.786;2022-09-02T06:16:44;101868.88;;;19.18
34125;BMP280;20110;53.120;5.786;2022-09-02T06:19:10;101871.50;;;19.34
34125;BMP280;20110;53.120;5.786;2022-09-02T06:21:37;101885.75;;;19.51
34125;BMP280;20110;53.120;5.786;2022-09-02T06:24:05;101895.13;;;19.75
34125;BMP280;20110;53.120;5.786;2022-09-02T06:26:32;101884.84;;;19.81
34125;BMP280;20110;53.120;5.786;2022-09-02T06:28:57;101866.28;;;19.85
34125;BMP280;20110;53.120;5.786;2022-09-02T06:31:23;101870.34;;;19.94
34125;BMP280;20110;53.120;5.786;2022-09-02T06:33:55;101893.34;;;20.20
34125;BMP280;20110;53.120;5.786;2022-09-02T06:36:24;101880.47;;;20.28
34125;BMP280;20110;53.120;5.786;2022-09-02T06:38:53;101882.69;;;20.39
34125;BMP280;20110;53.120;5.786;2022-09-02T06:41:24;101901.13;;;20.67
34125;BMP280;20110;53.120;5.786;2022-09-02T06:43:55;101895.53;;;20.82
34125;BMP280;20110;53.120;5.786;2022-09-02T06:46:26;101893.78;;;20.94
34125;BMP280;20110;53.120;5.786;2022-09-02T06:48:53;101893.88;;;21.14
34125;BMP280;20110;53.120;5.786;2022-09-02T06:51:26;101879.72;;;21.23
34125;BMP280;20110;53.120;5.786;2022-09-02T06:53:52;101885.34;;;21.44
34125;BMP280;20110;53.120;5.786;2022-09-02T06:56:18;101880.00;;;21.54
34125;BMP280;20110;53.120;5.786;2022-09-02T06:58:44;101865.19;;;21.55
34125;BMP280;20110;53.120;5.786;2022-09-02T07:01:19;101872.34;;;21.69
34125;BMP280;20110;53.120;5.786;2022-09-02T07:03:45;101852.44;;;21.74
34125;BMP280;20110;53.120;5.786;2022-09-02T07:06:37;101884.66;;;22.09
34125;BMP280;20110;53.120;5.786;2022-09-02T07:09:07;101887.06;;;22.24
34125;BMP280;20110;53.120;5.786;2022-09-02T07:11:34;101880.25;;;22.33
34125;BMP280;20110;53.120;5.786;2022-09-02T07:14:00;101862.00;;;22.33
34125;BMP280;20110;53.120;5.786;2022-09-02T07:16:31;101866.25;;;22.46
34125;BMP280;20110;53.120;5.786;2022-09-02T07:18:58;101851.44;;;22.56
34125;BMP280;20110;53.120;5.786;2022-09-02T07:21:27;101868.81;;;22.73
34125;BMP280;20110;53.120;5.786;2022-09-02T07:24:00;101847.13;;;22.82
34125;BMP280;20110;53.120;5.786;2022-09-02T07:26:28;101859.41;;;23.04
34125;BMP280;20110;53.120;5.786;2022-09-02T07:28:55;101878.34;;;23.24
34125;BMP280;20110;53.120;5.786;2022-09-02T07:31:21;101861.03;;;23.29
34125;BMP280;20110;53.120;5.786;2022-09-02T07:33:48;101868.22;;;23.45
34125;BMP280;20110;53.120;5.786;2022-09-02T07:36:14;101852.81;;;23.48
34125;BMP280;20110;53.120;5.786;2022-09-02T07:38:41;101869.06;;;23.69
34125;BMP280;20110;53.120;5.786;2022-09-02T07:41:09;101863.56;;;23.79
34125;BMP280;20110;53.120;5.786;2022-09-02T07:43:37;101869.31;;;23.95
34125;BMP280;20110;53.120;5.786;2022-09-02T07:46:04;101869.53;;;24.08
34125;BMP280;20110;53.120;5.786;2022-09-02T07:48:31;101862.31;;;24.13
34125;BMP280;20110;53.120;5.786;2022-09-02T07:50:58;101852.16;;;24.13
34125;BMP280;20110;53.120;5.786;2022-09-02T07:53:25;101859.88;;;24.28
34125;BMP280;20110;53.120;5.786;2022-09-02T07:55:51;101865.72;;;24.46
34125;BMP280;20110;53.120;5.786;2022-09-02T07:58:19;101868.81;;;24.52
34125;BMP280;20110;53.120;5.786;2022-09-02T08:00:47;101873.91;;;24.69
34125;BMP280;20110;53.120;5.786;2022-09-02T08:03:14;101859.97;;;24.75
34125;BMP280;20110;53.120;5.786;2022-09-02T08:05:41;101868.72;;;24.97
34125;BMP280;20110;53.120;5.786;2022-09-02T08:08:09;101870.00;;;25.07
34125;BMP280;20110;53.120;5.786;2022-09-02T08:10:36;101859.47;;;25.13
34125;BMP280;20110;53.120;5.786;2022-09-02T08:13:04;101856.53;;;25.21
34125;BMP280;20110;53.120;5.786;2022-09-02T08:15:33;101858.50;;;25.32
34125;BMP280;20110;53.120;5.786;2022-09-02T08:18:01;101852.34;;;25.32
34125;BMP280;20110;53.120;5.786;2022-09-02T08:20:27;101856.84;;;25.39
34125;BMP280;20110;53.120;5.786;2022-09-02T08:22:55;101857.25;;;25.47
34125;BMP280;20110;53.120;5.786;2022-09-02T08:25:21;101860.19;;;25.62
34125;BMP280;20110;53.120;5.786;2022-09-02T08:27:47;101845.19;;;25.61
34125;BMP280;20110;53.120;5.786;2022-09-02T08:30:14;101836.00;;;25.80
34125;BMP280;20110;53.120;5.786;2022-09-02T08:32:41;101846.22;;;25.93
34125;BMP280;20110;53.120;5.786;2022-09-02T08:35:09;101837.06;;;26.00
34125;BMP280;20110;53.120;5.786;2022-09-02T08:37:36;101854.03;;;26.12
34125;BMP280;20110;53.120;5.786;2022-09-02T08:40:07;101841.75;;;26.11
34125;BMP280;20110;53.120;5.786;2022-09-02T08:42:45;101852.50;;;26.35
34125;BMP280;20110;53.120;5.786;2022-09-02T08:45:35;101848.28;;;26.45
34125;BMP280;20110;53.120;5.786;2022-09-02T08:48:54;101858.69;;;26.76
34125;BMP280;20110;53.120;5.786;2022-09-02T08:51:32;101838.41;;;26.79
34125;BMP280;20110;53.120;5.786;2022-09-02T08:56:35;101839.88;;;27.09
34125;BMP280;20110;53.120;5.786;2022-09-02T08:59:02;101842.72;;;27.12
34125;BMP280;20110;53.120;5.786;2022-09-02T09:01:51;101836.03;;;27.15
34125;BMP280;20110;53.120;5.786;2022-09-02T09:07:19;101847.31;;;27.36
34125;BMP280;20110;53.120;5.786;2022-09-02T09:19:12;101821.47;;;27.98
34125;BMP280;20110;53.120;5.786;2022-09-02T09:21:39;101814.59;;;27.97
34125;BMP280;20110;53.120;5.786;2022-09-02T09:24:34;101813.50;;;28.04
34125;BMP280;20110;53.120;5.786;2022-09-02T09:27:13;101817.81;;;28.25
34125;BMP280;20110;53.120;5.786;2022-09-02T09:29:39;101816.50;;;28.41
34125;BMP280;20110;53.120;5.786;2022-09-02T09:32:22;101818.75;;;28.47
34125;BMP280;20110;53.120;5.786;2022-09-02T09:37:40;101817.25;;;28.77
34125;BMP280;20110;53.120;5.786;2022-09-02T09:45:39;101798.63;;;29.07
34125;BMP280;20110;53.120;5.786;2022-09-02T09:50:46;101808.53;;;29.52
34125;BMP280;20110;53.120;5.786;2022-09-02T09:56:20;101815.41;;;31.42
34125;BMP280;20110;53.120;5.786;2022-09-02T09:58:49;101806.59;;;32.25
34125;BMP280;20110;53.120;5.786;2022-09-02T10:01:27;101800.66;;;32.96
34125;BMP280;20110;53.120;5.786;2022-09-02T10:04:32;101803.81;;;33.52
34125;BMP280;20110;53.120;5.786;2022-09-02T10:06:58;101791.78;;;33.73
34125;BMP280;20110;53.120;5.786;2022-09-02T10:09:35;101802.09;;;34.12
34125;BMP280;20110;53.120;5.786;2022-09-02T10:12:06;101786.91;;;34.11
34125;BMP280;20110;53.120;5.786;2022-09-02T10:14:47;101790.41;;;34.14
34125;BMP280;20110;53.120;5.786;2022-09-02T10:20:17;101799.00;;;34.34
34125;BMP280;20110;53.120;5.786;2022-09-02T10:23:04;101790.19;;;34.44
34125;BMP280;20110;53.120;5.786;2022-09-02T10:28:27;101773.41;;;34.30
34125;BMP280;20110;53.120;5.786;2022-09-02T10:31:36;101781.63;;;34.26
34125;BMP280;20110;53.120;5.786;2022-09-02T10:34:17;101759.97;;;34.08
34125;BMP280;20110;53.120;5.786;2022-09-02T10:37:16;101775.31;;;34.19
34125;BMP280;20110;53.120;5.786;2022-09-02T10:40:15;101768.06;;;34.42
34125;BMP280;20110;53.120;5.786;2022-09-02T10:43:06;101757.28;;;34.60
34125;BMP280;20110;53.120;5.786;2022-09-02T10:45:45;101759.50;;;34.73
34125;BMP280;20110;53.120;5.786;2022-09-02T10:54:03;101759.19;;;35.81
34125;BMP280;20110;53.120;5.786;2022-09-02T10:56:51;101739.91;;;35.89
34125;BMP280;20110;53.120;5.786;2022-09-02T10:59:38;101729.63;;;36.04
34125;BMP280;20110;53.120;5.786;2022-09-02T11:02:29;101747.66;;;36.21
34125;BMP280;20110;53.120;5.786;2022-09-02T11:05:06;101728.38;;;36.29
34125;BMP280;20110;53.120;5.786;2022-09-02T11:10:28;101745.69;;;36.42
34125;BMP280;20110;53.120;5.786;2022-09-02T11:13:01;101745.84;;;36.70
34125;BMP280;20110;53.120;5.786;2022-09-02T11:15:43;101736.16;;;36.99
34125;BMP280;20110;53.120;5.786;2022-09-02T11:18:29;101725.84;;;37.14
34125;BMP280;20110;53.120;5.786;2022-09-02T11:21:18;101735.50;;;37.45
34125;BMP280;20110;53.120;5.786;2022-09-02T11:26:50;101729.94;;;37.61
34125;BMP280;20110;53.120;5.786;2022-09-02T11:29:50;101732.66;;;37.92
34125;BMP280;20110;53.120;5.786;2022-09-02T11:35:23;101726.47;;;37.79
34125;BMP280;20110;53.120;5.786;2022-09-02T11:38:03;101709.81;;;37.73
34125;BMP280;20110;53.120;5.786;2022-09-02T11:40:44;101706.28;;;37.99
34125;BMP280;20110;53.120;5.786;2022-09-02T11:49:36;101713.28;;;37.74
34125;BMP280;20110;53.120;5.786;2022-09-02T11:52:31;101710.50;;;37.90
34125;BMP280;20110;53.120;5.786;2022-09-02T11:55:18;101711.78;;;38.15
34125;BMP280;20110;53.120;5.786;2022-09-02T11:57:54;101706.22;;;38.15
34125;BMP280;20110;53.120;5.786;2022-09-02T12:03:28;101696.66;;;37.70
34125;BMP280;20110;53.120;5.786;2022-09-02T12:06:14;101709.75;;;37.97
34125;BMP280;20110;53.120;5.786;2022-09-02T12:11:09;101702.09;;;38.06
34125;BMP280;20110;53.120;5.786;2022-09-02T12:13:44;101707.59;;;38.18
34125;BMP280;20110;53.120;5.786;2022-09-02T12:21:21;101677.06;;;38.22
34125;BMP280;20110;53.120;5.786;2022-09-02T12:26:25;101674.94;;;38.28
34125;BMP280;20110;53.120;5.786;2022-09-02T12:29:51;101678.91;;;38.60
34125;BMP280;20110;53.120;5.786;2022-09-02T12:31:58;101677.31;;;38.89
34125;BMP280;20110;53.120;5.786;2022-09-02T12:36:52;101663.06;;;39.29
34125;BMP280;20110;53.120;5.786;2022-09-02T12:45:08;101645.69;;;39.86
34125;BMP280;20110;53.120;5.786;2022-09-02T12:50:27;101659.25;;;40.10
34125;BMP280;20110;53.120;5.786;2022-09-02T12:55:58;101667.13;;;40.42
34125;BMP280;20110;53.120;5.786;2022-09-02T12:58:34;101654.09;;;40.31
34125;BMP280;20110;53.120;5.786;2022-09-02T13:19:20;101649.53;;;38.89
34125;BMP280;20110;53.120;5.786;2022-09-02T13:22:48;101633.25;;;38.43
34125;BMP280;20110;53.120;5.786;2022-09-02T13:28:55;101624.66;;;37.55
34125;BMP280;20110;53.120;5.786;2022-09-02T13:31:26;101610.88;;;37.09
34125;BMP280;20110;53.120;5.786;2022-09-02T13:34:09;101618.50;;;36.78
34125;BMP280;20110;53.120;5.786;2022-09-02T13:36:42;101588.00;;;36.32
34125;BMP280;20110;53.120;5.786;2022-09-02T13:39:18;101614.31;;;36.37
34125;BMP280;20110;53.120;5.786;2022-09-02T13:41:44;101617.69;;;36.19
34125;BMP280;20110;53.120;5.786;2022-09-02T13:44:25;101619.00;;;35.94
34125;BMP280;20110;53.120;5.786;2022-09-02T13:47:01;101581.47;;;35.55
34125;BMP280;20110;53.120;5.786;2022-09-02T13:49:40;101625.69;;;35.57
34125;BMP280;20110;53.120;5.786;2022-09-02T13:52:21;101621.47;;;35.46
34125;BMP280;20110;53.120;5.786;2022-09-02T13:54:57;101610.28;;;35.25
34125;BMP280;20110;53.120;5.786;2022-09-02T13:57:25;101604.25;;;35.55
34125;BMP280;20110;53.120;5.786;2022-09-02T13:59:54;101605.53;;;35.40
34125;BMP280;20110;53.120;5.786;2022-09-02T14:02:33;101602.03;;;35.36
34125;BMP280;20110;53.120;5.786;2022-09-02T14:05:14;101601.38;;;35.37
34125;BMP280;20110;53.120;5.786;2022-09-02T14:07:47;101597.88;;;35.28
34125;BMP280;20110;53.120;5.786;2022-09-02T14:10:20;101586.06;;;35.20
34125;BMP280;20110;53.120;5.786;2022-09-02T14:12:48;101577.75;;;35.14
34125;BMP280;20110;53.120;5.786;2022-09-02T14:15:21;101594.34;;;35.20
34125;BMP280;20110;53.120;5.786;2022-09-02T14:18:14;101590.09;;;35.05
34125;BMP280;20110;53.120;5.786;2022-09-02T14:21:16;101564.50;;;34.98
34125;BMP280;20110;53.120;5.786;2022-09-02T14:23:50;101583.81;;;34.98
34125;BMP280;20110;53.120;5.786;2022-09-02T14:26:50;101555.28;;;34.71
34125;BMP280;20110;53.120;5.786;2022-09-02T14:29:19;101578.75;;;34.72
34125;BMP280;20110;53.120;5.786;2022-09-02T14:32:05;101525.28;;;34.32
34125;BMP280;20110;53.120;5.786;2022-09-02T14:34:34;101561.88;;;34.40
34125;BMP280;20110;53.120;5.786;2022-09-02T14:37:23;101572.31;;;34.48
34125;BMP280;20110;53.120;5.786;2022-09-02T14:40:06;101572.31;;;34.52
34125;BMP280;20110;53.120;5.786;2022-09-02T14:42:52;101554.41;;;34.49
34125;BMP280;20110;53.120;5.786;2022-09-02T14:45:30;101559.97;;;34.55
34125;BMP280;20110;53.120;5.786;2022-09-02T14:48:09;101553.78;;;34.56
34125;BMP280;20110;53.120;5.786;2022-09-02T14:50:38;101555.88;;;34.58
34125;BMP280;20110;53.120;5.786;2022-09-02T14:53:09;101567.66;;;34.64
34125;BMP280;20110;53.120;5.786;2022-09-02T14:55:55;101541.88;;;34.40
34125;BMP280;20110;53.120;5.786;2022-09-02T14:58:26;101564.59;;;34.36
34125;BMP280;20110;53.120;5.786;2022-09-02T15:00:58;101559.53;;;34.14
34125;BMP280;20110;53.120;5.786;2022-09-02T15:03:24;101554.63;;;34.09
34125;BMP280;20110;53.120;5.786;2022-09-02T15:05:50;101547.00;;;34.03
34125;BMP280;20110;53.120;5.786;2022-09-02T15:08:19;101558.19;;;34.17
34125;BMP280;20110;53.120;5.786;2022-09-02T15:10:46;101514.50;;;33.96
34125;BMP280;20110;53.120;5.786;2022-09-02T15:13:23;101540.19;;;34.10
34125;BMP280;20110;53.120;5.786;2022-09-02T15:15:51;101540.94;;;34.17
34125;BMP280;20110;53.120;5.786;2022-09-02T15:18:17;101528.41;;;34.06
34125;BMP280;20110;53.120;5.786;2022-09-02T15:20:42;101529.19;;;34.12
34125;BMP280;20110;53.120;5.786;2022-09-02T15:23:08;101520.22;;;34.12
34125;BMP280;20110;53.120;5.786;2022-09-02T15:25:35;101528.56;;;34.20
34125;BMP280;20110;53.120;5.786;2022-09-02T15:28:01;101512.53;;;34.02
34125;BMP280;20110;53.120;5.786;2022-09-02T15:30:27;101534.09;;;34.20
34125;BMP280;20110;53.120;5.786;2022-09-02T15:32:53;101521.59;;;34.11
34125;BMP280;20110;53.120;5.786;2022-09-02T15:35:19;101535.41;;;34.15
34125;BMP280;20110;53.120;5.786;2022-09-02T15:37:49;101524.22;;;34.01
34125;BMP280;20110;53.120;5.786;2022-09-02T15:40:14;101529.75;;;34.03
34125;BMP280;20110;53.120;5.786;2022-09-02T15:42:40;101529.06;;;34.04
34125;BMP280;20110;53.120;5.786;2022-09-02T15:45:07;101529.16;;;34.10
34125;BMP280;20110;53.120;5.786;2022-09-02T15:47:35;101525.03;;;34.11
34125;BMP280;20110;53.120;5.786;2022-09-02T15:50:02;101528.44;;;34.08
34125;BMP280;20110;53.120;5.786;2022-09-02T15:52:28;101521.50;;;34.05
34125;BMP280;20110;53.120;5.786;2022-09-02T15:54:53;101521.47;;;34.01
34125;BMP280;20110;53.120;5.786;2022-09-02T15:57:19;101522.78;;;33.98
34125;BMP280;20110;53.120;5.786;2022-09-02T15:59:46;101515.84;;;33.93
34125;BMP280;20110;53.120;5.786;2022-09-02T16:02:12;101517.31;;;34.00
34125;BMP280;20110;53.120;5.786;2022-09-02T16:04:38;101508.97;;;33.92
34125;BMP280;20110;53.120;5.786;2022-09-02T16:07:03;101510.31;;;33.89